Time;durP1;ratioP1;P1;durP2;ratioP2;P2;SDS_P1;SDS_P2;PMS_P1;PMS_P2;Temp;Humidity;BMP_temperature;BMP_pressure;BME280_temperature;BME280_humidity;BME280_pressure;Samples;Min_cycle;Max_cycle;Signal;HPM_P1;HPM_P2
2023/04/08 00:00:33;;;;;;;;;;;;;;;8.24;59.75;99995.69;4993035;28;19917;-80
2023/04/08 00:02:58;;;;;;;;;;;;;;;8.20;59.26;99993.06;4992477;28;19917;-80
2023/04/08 00:05:23;;;;;;;;;;;;;;;8.32;59.16;99993.03;4993396;28;19917;-80
2023/04/08 00:07:49;;;;;;;;;;;;;;;8.32;60.33;99998.31;4992902;28;20009;-80
2023/04/08 00:10:14;;;;;;;;;;;;;;;8.36;60.61;99996.56;4991168;28;20012;-80
2023/04/08 00:12:39;;;;;;;;;;;;;;;8.28;61.87;99998.31;4993537;28;19913;-80
2023/04/08 00:15:05;;;;;;;;;;;;;;;8.23;61.66;99985.16;4992582;28;19918;-80
2023/04/08 00:17:30;;;;;;;;;;;;;;;8.26;62.81;100008.81;4992801;28;20454;-79
2023/04/08 00:19:55;;;;;;;;;;;;;;;8.41;62.73;100003.56;4993614;28;19924;-79
2023/04/08 00:22:21;;;;;;;;;;;;;;;8.47;63.01;100012.38;4993316;28;20064;-80
2023/04/08 00:24:46;;;;;;;;;;;;;;;8.72;61.95;100005.28;4992960;28;20398;-80
2023/04/08 00:27:12;;;;;;;;;;;;;;;8.63;62.40;100008.81;4992755;28;19992;-80
2023/04/08 00:29:37;;;;;;;;;;;;;;;8.63;62.12;100006.19;4992553;28;19914;-80
2023/04/08 00:32:02;;;;;;;;;;;;;;;8.58;62.67;100010.59;4992693;28;19933;-81
2023/04/08 00:34:28;;;;;;;;;;;;;;;8.58;62.81;100010.59;4993433;28;20014;-81
2023/04/08 00:36:53;;;;;;;;;;;;;;;8.57;62.75;100009.72;4990575;28;19913;-82
2023/04/08 00:39:19;;;;;;;;;;;;;;;8.60;62.75;100001.81;4992062;28;19914;-81
2023/04/08 00:41:44;;;;;;;;;;;;;;;8.61;62.19;100013.22;4992466;28;19924;-81
2023/04/08 00:44:10;;;;;;;;;;;;;;;8.68;61.95;100016.69;4992962;28;19968;-81
2023/04/08 00:46:37;;;;;;;;;;;;;;;8.74;62.81;100012.31;4992903;28;19909;-82
2023/04/08 00:49:03;;;;;;;;;;;;;;;8.48;63.62;100016.72;4991483;28;19913;-81
2023/04/08 00:51:28;;;;;;;;;;;;;;;8.39;63.32;100013.19;4992111;28;19924;-81
2023/04/08 00:53:54;;;;;;;;;;;;;;;8.42;64.93;100005.31;4992352;28;19909;-81
2023/04/08 00:56:20;;;;;;;;;;;;;;;8.32;64.59;100015.84;4992563;28;19925;-81
2023/04/08 00:58:46;;;;;;;;;;;;;;;8.34;64.86;100012.34;4992046;28;19918;-82
2023/04/08 01:01:20;;;;;;;;;;;;;;;8.32;65.27;100014.06;4991562;28;19992;-82
2023/04/08 01:04:06;;;;;;;;;;;;;;;8.35;65.85;100019.34;4992552;28;20406;-82
2023/04/08 01:06:42;;;;;;;;;;;;;;;8.34;66.43;100019.34;4992087;28;19918;-82
2023/04/08 01:09:08;;;;;;;;;;;;;;;8.35;66.58;100016.69;4992172;28;20318;-81
2023/04/08 01:11:34;;;;;;;;;;;;;;;8.55;66.69;100026.38;4991381;28;19928;-82
2023/04/08 01:14:04;;;;;;;;;;;;;;;8.64;66.58;100028.13;4992421;28;19918;-81
2023/04/08 01:16:29;;;;;;;;;;;;;;;8.86;65.29;100034.19;4991409;28;20027;-81
2023/04/08 01:18:55;;;;;;;;;;;;;;;8.88;65.71;100024.53;4991649;28;20008;-82
2023/04/08 01:21:22;;;;;;;;;;;;;;;8.88;65.29;100022.78;4990990;28;19940;-81
2023/04/08 01:24:01;;;;;;;;;;;;;;;8.98;65.06;100030.66;4992597;28;20013;-81
2023/04/08 01:26:26;;;;;;;;;;;;;;;9.01;65.45;100031.53;4991644;28;20386;-81
2023/04/08 01:28:56;;;;;;;;;;;;;;;9.03;65.38;100028.88;4992226;28;19972;-81
2023/04/08 01:31:22;;;;;;;;;;;;;;;8.89;66.30;100024.53;4990886;28;19968;-81
2023/04/08 01:33:49;;;;;;;;;;;;;;;8.99;66.16;100033.28;4991593;28;20017;-80
2023/04/08 01:36:15;;;;;;;;;;;;;;;9.05;66.32;100021.84;4989906;28;19918;-82
2023/04/08 01:38:41;;;;;;;;;;;;;;;8.94;65.79;100016.63;4991905;28;19937;-82
2023/04/08 01:41:07;;;;;;;;;;;;;;;8.99;65.73;100022.75;4990917;28;20365;-82
2023/04/08 01:43:34;;;;;;;;;;;;;;;8.91;66.74;100025.41;4991728;28;19940;-82
2023/04/08 01:46:00;;;;;;;;;;;;;;;9.02;66.41;100027.13;4990858;28;19968;-82
2023/04/08 01:48:27;;;;;;;;;;;;;;;9.06;66.32;100027.09;4991121;28;19991;-83
2023/04/08 01:50:53;;;;;;;;;;;;;;;8.86;67.16;100035.06;4991055;28;19925;-82
2023/04/08 01:53:19;;;;;;;;;;;;;;;8.89;67.43;100029.78;4991547;28;19913;-83
2023/04/08 01:55:44;;;;;;;;;;;;;;;8.88;67.73;100032.41;4991498;28;20010;-84
2023/04/08 01:58:15;;;;;;;;;;;;;;;8.99;67.30;100037.66;4991585;28;19917;-83
2023/04/08 02:00:42;;;;;;;;;;;;;;;9.00;67.78;100047.31;4990395;28;19957;-82
2023/04/08 02:03:10;;;;;;;;;;;;;;;9.05;68.08;100054.31;4991909;28;19921;-82
2023/04/08 02:05:36;;;;;;;;;;;;;;;9.06;67.70;100056.06;4972513;28;19924;-82
2023/04/08 02:08:01;;;;;;;;;;;;;;;8.99;68.72;100050.81;4991497;28;20324;-81
2023/04/08 02:10:26;;;;;;;;;;;;;;;9.06;68.28;100050.78;4973781;28;20375;-81
2023/04/08 02:12:52;;;;;;;;;;;;;;;8.96;69.09;100046.44;4990953;28;20409;-81
2023/04/08 02:15:17;;;;;;;;;;;;;;;9.06;69.25;100036.75;4990716;28;20012;-82
2023/04/08 02:17:48;;;;;;;;;;;;;;;8.95;69.71;100050.81;4990209;28;19922;-82
2023/04/08 02:20:16;;;;;;;;;;;;;;;8.90;70.53;100052.59;4991064;28;19918;-82
2023/04/08 02:22:54;;;;;;;;;;;;;;;8.96;70.10;100051.72;4990544;28;19917;-82
2023/04/08 02:25:22;;;;;;;;;;;;;;;8.77;71.21;100054.38;4990298;28;19937;-82
2023/04/08 02:27:48;;;;;;;;;;;;;;;8.74;71.63;100061.38;4990827;28;19980;-82
2023/04/08 02:30:14;;;;;;;;;;;;;;;8.71;72.67;100059.66;4991362;28;19913;-83
2023/04/08 02:32:40;;;;;;;;;;;;;;;8.82;72.40;100064.91;4990918;28;19996;-82
2023/04/08 02:35:07;;;;;;;;;;;;;;;8.85;72.17;100058.75;4991314;28;19972;-82
2023/04/08 02:37:32;;;;;;;;;;;;;;;8.83;72.03;100061.38;4990230;28;19925;-82
2023/04/08 02:39:58;;;;;;;;;;;;;;;8.86;72.30;100060.50;4989631;28;20291;-82
2023/04/08 02:42:23;;;;;;;;;;;;;;;8.83;72.98;100061.38;4990653;28;20013;-82
2023/04/08 02:44:48;;;;;;;;;;;;;;;8.77;73.00;100059.66;4990501;28;19918;-82
2023/04/08 02:47:14;;;;;;;;;;;;;;;8.75;73.51;100057.88;4989787;28;19929;-81
2023/04/08 02:49:39;;;;;;;;;;;;;;;8.82;73.45;100058.75;4990255;28;19917;-81
2023/04/08 02:52:05;;;;;;;;;;;;;;;8.89;73.12;100060.50;4990806;28;19921;-81
2023/04/08 02:54:30;;;;;;;;;;;;;;;8.75;73.48;100058.75;4990675;28;20380;-81
2023/04/08 02:56:55;;;;;;;;;;;;;;;8.84;73.63;100059.63;4989998;28;19932;-81
2023/04/08 02:59:21;;;;;;;;;;;;;;;9.00;73.26;100071.00;4990483;28;20330;-82
2023/04/08 03:01:46;;;;;;;;;;;;;;;8.91;73.63;100070.16;4990198;28;20015;-82
2023/04/08 03:04:11;;;;;;;;;;;;;;;8.91;72.70;100066.63;4991049;28;20387;-82
2023/04/08 03:06:37;;;;;;;;;;;;;;;8.88;73.32;100074.53;4989786;28;19935;-82
2023/04/08 03:09:02;;;;;;;;;;;;;;;8.92;73.33;100078.91;4990493;28;19925;-80
2023/04/08 03:11:27;;;;;;;;;;;;;;;8.84;74.07;100078.91;4990882;28;19920;-81
2023/04/08 03:13:53;;;;;;;;;;;;;;;8.73;74.59;100081.56;4990480;28;19925;-81
2023/04/08 03:16:18;;;;;;;;;;;;;;;8.56;75.18;100078.94;4990404;28;19918;-81
2023/04/08 03:18:43;;;;;;;;;;;;;;;8.71;74.78;100091.22;4989812;28;20008;-81
2023/04/08 03:21:09;;;;;;;;;;;;;;;8.60;75.31;100085.06;4989502;28;19928;-81
2023/04/08 03:23:35;;;;;;;;;;;;;;;8.62;75.86;100080.72;4990457;28;19984;-81
2023/04/08 03:26:00;;;;;;;;;;;;;;;8.36;76.51;100086.81;4990102;28;19913;-81
2023/04/08 03:28:25;;;;;;;;;;;;;;;8.19;77.45;100093.81;4991343;28;19918;-81
2023/04/08 03:30:50;;;;;;;;;;;;;;;8.37;76.79;100091.19;4994147;28;19957;-81
2023/04/08 03:33:16;;;;;;;;;;;;;;;8.40;77.65;100087.69;4992492;28;20436;-81
2023/04/08 03:35:41;;;;;;;;;;;;;;;8.47;77.50;100088.59;4993440;28;19921;-81
2023/04/08 03:38:07;;;;;;;;;;;;;;;8.19;77.76;100084.16;4987303;28;19914;-80
2023/04/08 03:40:32;;;;;;;;;;;;;;;8.02;79.77;100085.91;4974256;28;20036;-80
2023/04/08 03:42:57;;;;;;;;;;;;;;;7.86;79.96;100083.25;4991818;28;19917;-81
2023/04/08 03:45:23;;;;;;;;;;;;;;;7.74;81.30;100074.44;4993139;28;19918;-80
2023/04/08 03:47:48;;;;;;;;;;;;;;;7.72;81.24;100087.56;4993570;28;19921;-81
2023/04/08 03:50:14;;;;;;;;;;;;;;;8.07;80.45;100084.16;4993844;28;19920;-81
2023/04/08 03:52:39;;;;;;;;;;;;;;;7.97;79.61;100064.88;4993243;28;19921;-81
2023/04/08 03:55:05;;;;;;;;;;;;;;;7.98;80.45;100090.25;4992711;28;19921;-81
2023/04/08 03:57:30;;;;;;;;;;;;;;;7.92;80.89;100090.25;4993504;28;19920;-81
2023/04/08 03:59:55;;;;;;;;;;;;;;;8.04;80.52;100095.53;4993459;28;19960;-80
2023/04/08 04:02:21;;;;;;;;;;;;;;;8.16;80.12;100092.06;4993144;28;19921;-80
2023/04/08 04:04:46;;;;;;;;;;;;;;;8.23;79.62;100091.19;4993259;28;19913;-80
2023/04/08 04:07:11;;;;;;;;;;;;;;;8.28;79.11;100095.56;4992660;28;19964;-81
2023/04/08 04:09:37;;;;;;;;;;;;;;;8.45;78.71;100099.13;4993625;28;20012;-80
2023/04/08 04:12:02;;;;;;;;;;;;;;;8.45;78.40;100106.13;4992784;28;20015;-81
2023/04/08 04:14:27;;;;;;;;;;;;;;;8.57;77.89;100108.75;4993179;28;20474;-80
2023/04/08 04:16:53;;;;;;;;;;;;;;;8.68;76.85;100104.38;4992058;28;19928;-80
2023/04/08 04:19:18;;;;;;;;;;;;;;;8.72;76.51;100108.72;4993482;28;19953;-80
2023/04/08 04:21:43;;;;;;;;;;;;;;;8.71;76.48;100099.13;4993513;28;19967;-80
2023/04/08 04:24:09;;;;;;;;;;;;;;;8.80;76.18;100107.88;4993537;28;19914;-80
2023/04/08 04:26:34;;;;;;;;;;;;;;;8.84;76.30;100112.25;4992728;28;19931;-80
2023/04/08 04:28:59;;;;;;;;;;;;;;;8.87;76.01;100114.88;4993271;28;19945;-80
2023/04/08 04:31:25;;;;;;;;;;;;;;;8.83;75.96;100108.72;4991416;28;19968;-81
2023/04/08 04:33:50;;;;;;;;;;;;;;;8.92;76.70;100113.09;4993321;28;19921;-81
2023/04/08 04:36:16;;;;;;;;;;;;;;;8.91;76.64;100116.59;4992712;28;19921;-82
2023/04/08 04:38:42;;;;;;;;;;;;;;;8.94;76.14;100117.50;4992490;28;20011;-80
2023/04/08 04:41:07;;;;;;;;;;;;;;;8.92;76.60;100115.75;4991509;28;19924;-80
2023/04/08 04:43:32;;;;;;;;;;;;;;;9.01;76.90;100121.00;4992415;28;19928;-80
2023/04/08 04:45:58;;;;;;;;;;;;;;;9.06;76.74;100116.56;4993071;28;19914;-81
2023/04/08 04:48:23;;;;;;;;;;;;;;;9.10;75.93;100120.97;4992193;28;20004;-81
2023/04/08 04:50:57;;;;;;;;;;;;;;;9.17;76.30;100120.94;4992559;28;20335;-82
2023/04/08 04:53:23;;;;;;;;;;;;;;;9.24;75.88;100109.53;4992919;28;19968;-82
2023/04/08 04:55:49;;;;;;;;;;;;;;;9.20;75.57;100118.31;4988156;28;19922;-82
2023/04/08 04:58:14;;;;;;;;;;;;;;;9.27;76.10;100117.44;4984184;28;19913;-82
2023/04/08 05:00:40;;;;;;;;;;;;;;;9.41;74.70;100120.03;4991569;28;19924;-81
2023/04/08 05:03:05;;;;;;;;;;;;;;;9.56;74.00;100119.06;4990839;28;19913;-81
2023/04/08 05:05:30;;;;;;;;;;;;;;;9.52;73.92;100117.34;4992425;28;19915;-82
2023/04/08 05:07:56;;;;;;;;;;;;;;;9.45;75.11;100113.84;4992427;28;19909;-81
2023/04/08 05:10:21;;;;;;;;;;;;;;;9.44;74.77;100102.44;4992204;28;20004;-82
2023/04/08 05:12:46;;;;;;;;;;;;;;;9.67;74.30;100122.56;4984795;28;19917;-81
2023/04/08 05:15:12;;;;;;;;;;;;;;;9.56;75.21;100124.31;4990686;28;20012;-81
2023/04/08 05:17:37;;;;;;;;;;;;;;;9.31;76.57;100129.69;4988620;28;19925;-81
2023/04/08 05:20:03;;;;;;;;;;;;;;;9.42;76.59;100130.53;4991126;28;20019;-80
2023/04/08 05:22:28;;;;;;;;;;;;;;;9.48;76.66;100122.63;4987593;28;19925;-80
2023/04/08 05:24:54;;;;;;;;;;;;;;;9.45;76.87;100130.53;4984018;28;19914;-81
2023/04/08 05:27:20;;;;;;;;;;;;;;;9.55;76.64;100131.38;4983512;28;20008;-81
2023/04/08 05:29:45;;;;;;;;;;;;;;;9.45;76.09;100132.28;4991142;28;20060;-81
2023/04/08 05:32:11;;;;;;;;;;;;;;;9.59;76.35;100135.75;4991705;28;19964;-81
2023/04/08 05:34:36;;;;;;;;;;;;;;;9.56;75.65;100141.03;4990738;28;20287;-83
2023/04/08 05:37:01;;;;;;;;;;;;;;;9.55;76.20;100139.28;4991791;28;19921;-84
2023/04/08 05:39:27;;;;;;;;;;;;;;;9.43;76.28;100152.47;4990866;28;19925;-81
2023/04/08 05:41:52;;;;;;;;;;;;;;;9.36;76.74;100156.00;4989916;28;19969;-80
2023/04/08 05:44:17;;;;;;;;;;;;;;;9.06;78.07;100148.16;4991971;28;19936;-80
2023/04/08 05:46:43;;;;;;;;;;;;;;;9.34;77.76;100148.09;4985439;28;19921;-82
2023/04/08 05:49:08;;;;;;;;;;;;;;;9.14;77.44;100146.41;4991606;28;20421;-80
2023/04/08 05:51:33;;;;;;;;;;;;;;;9.23;77.87;100142.00;4982681;28;20367;-81
2023/04/08 05:53:59;;;;;;;;;;;;;;;9.38;77.22;100144.59;4985022;28;19918;-81
2023/04/08 05:56:24;;;;;;;;;;;;;;;9.49;77.77;100142.78;4981464;28;19918;-81
2023/04/08 05:58:49;;;;;;;;;;;;;;;9.80;76.71;100145.31;4982586;28;19914;-81
2023/04/08 06:01:15;;;;;;;;;;;;;;;9.79;74.95;100137.41;4974277;28;19925;-81
2023/04/08 06:03:40;;;;;;;;;;;;;;;9.54;74.48;100137.50;4972510;28;20375;-81
2023/04/08 06:06:11;;;;;;;;;;;;;;;9.53;75.39;100134.88;4974551;28;20383;-81
2023/04/08 06:08:36;;;;;;;;;;;;;;;9.94;73.55;100139.97;4972613;28;19921;-81
2023/04/08 06:11:04;;;;;;;;;;;;;;;9.92;72.32;100136.47;4976313;28;19926;-81
2023/04/08 06:13:29;;;;;;;;;;;;;;;9.77;73.39;100142.69;4971131;28;19914;-81
2023/04/08 06:15:54;;;;;;;;;;;;;;;9.79;73.52;100147.94;4975991;28;19924;-82
2023/04/08 06:18:20;;;;;;;;;;;;;;;9.99;72.71;100145.22;4975168;28;19914;-81
2023/04/08 06:20:45;;;;;;;;;;;;;;;10.11;72.30;100145.13;4973928;28;19917;-80
2023/04/08 06:23:11;;;;;;;;;;;;;;;10.33;71.44;100145.94;4975715;28;19918;-80
2023/04/08 06:25:36;;;;;;;;;;;;;;;10.45;71.69;100152.00;4971117;28;20057;-81
2023/04/08 06:28:02;;;;;;;;;;;;;;;10.54;71.13;100141.38;4994351;28;20000;-82
2023/04/08 06:30:27;;;;;;;;;;;;;;;10.64;69.80;100158.00;4983938;28;20439;-82
2023/04/08 06:32:52;;;;;;;;;;;;;;;10.90;69.36;100160.41;4971329;28;20387;-80
2023/04/08 06:35:18;;;;;;;;;;;;;;;10.53;69.69;100156.34;4976683;28;19918;-81
2023/04/08 06:37:43;;;;;;;;;;;;;;;10.38;69.76;100157.31;4971226;28;20422;-81
2023/04/08 06:40:09;;;;;;;;;;;;;;;10.69;68.54;100159.72;4981171;28;19918;-82
2023/04/08 06:42:35;;;;;;;;;;;;;;;10.86;68.10;100159.59;4979045;28;20047;-79
2023/04/08 06:45:00;;;;;;;;;;;;;;;10.98;67.64;100152.44;4987495;28;20287;-82
2023/04/08 06:47:25;;;;;;;;;;;;;;;11.00;68.25;100155.91;4977486;28;20012;-83
2023/04/08 06:49:51;;;;;;;;;;;;;;;11.26;66.80;100146.00;4989334;28;19913;-83
2023/04/08 06:52:16;;;;;;;;;;;;;;;11.25;66.39;100157.44;4984038;28;20376;-84
2023/04/08 06:54:42;;;;;;;;;;;;;;;10.93;67.93;100158.63;4983034;28;19997;-84
2023/04/08 06:57:07;;;;;;;;;;;;;;;10.97;67.87;100156.84;4979694;28;20335;-83
2023/04/08 06:59:32;;;;;;;;;;;;;;;11.04;66.88;100153.25;4977327;28;19964;-83
2023/04/08 07:01:58;;;;;;;;;;;;;;;11.13;66.89;100151.41;4979164;28;19918;-83
2023/04/08 07:04:23;;;;;;;;;;;;;;;11.01;67.19;100147.97;4987842;28;20319;-84
2023/04/08 07:06:49;;;;;;;;;;;;;;;10.38;69.40;100149.41;4987084;28;19921;-84
2023/04/08 07:09:14;;;;;;;;;;;;;;;10.91;68.11;100141.94;4992252;28;20027;-84
2023/04/08 07:11:39;;;;;;;;;;;;;;;11.09;66.96;100150.56;4990635;28;20413;-83
2023/04/08 07:14:05;;;;;;;;;;;;;;;11.41;64.96;100149.34;4978537;28;20355;-83
2023/04/08 07:16:30;;;;;;;;;;;;;;;11.55;65.69;100146.56;4979082;28;20370;-84
2023/04/08 07:18:55;;;;;;;;;;;;;;;11.56;65.01;100149.19;4974556;28;19914;-84
2023/04/08 07:21:21;;;;;;;;;;;;;;;11.72;65.15;100154.28;4983974;28;20016;-84
2023/04/08 07:23:46;;;;;;;;;;;;;;;11.55;64.59;100147.41;4980680;28;20428;-84
2023/04/08 07:26:11;;;;;;;;;;;;;;;12.08;64.21;100157.34;4978848;28;20757;-84
2023/04/08 07:28:37;;;;;;;;;;;;;;;11.80;63.97;100155.03;4988518;28;19995;-84
2023/04/08 07:31:10;;;;;;;;;;;;;;;11.86;63.76;100157.59;4990316;28;20045;-84
2023/04/08 07:33:35;;;;;;;;;;;;;;;12.28;63.87;100155.31;4987824;28;19932;-84
2023/04/08 07:36:00;;;;;;;;;;;;;;;12.65;62.11;100156.50;4992002;28;19917;-83
2023/04/08 07:38:26;;;;;;;;;;;;;;;12.76;60.71;100157.22;4984693;28;19913;-82
2023/04/08 07:40:52;;;;;;;;;;;;;;;12.57;60.94;100151.34;4989275;28;19924;-83
2023/04/08 07:43:17;;;;;;;;;;;;;;;12.46;59.67;100153.28;4991903;28;19920;-82
2023/04/08 07:45:43;;;;;;;;;;;;;;;12.80;58.36;100158.91;4989834;28;19933;-84
2023/04/08 07:48:08;;;;;;;;;;;;;;;13.61;57.45;100155.72;4984042;28;20042;-83
2023/04/08 07:50:35;;;;;;;;;;;;;;;13.78;56.62;100148.28;4976635;28;19918;-84
2023/04/08 07:53:00;;;;;;;;;;;;;;;13.60;56.84;100143.34;4984705;28;20409;-83
2023/04/08 07:55:26;;;;;;;;;;;;;;;13.68;56.26;100151.16;4987741;28;19922;-84
2023/04/08 07:57:51;;;;;;;;;;;;;;;13.80;55.80;100153.56;4988744;28;19925;-84
2023/04/08 08:00:20;;;;;;;;;;;;;;;14.05;55.72;100153.88;4987813;28;20346;-83
2023/04/08 08:02:46;;;;;;;;;;;;;;;14.23;54.47;100152.63;4983699;28;19925;-83
2023/04/08 08:05:12;;;;;;;;;;;;;;;14.48;54.25;100147.59;4991535;28;19993;-83
2023/04/08 08:07:37;;;;;;;;;;;;;;;14.04;55.86;100152.16;4987128;28;20004;-84
2023/04/08 08:10:02;;;;;;;;;;;;;;;14.08;53.51;100151.16;4985463;28;19967;-84
2023/04/08 08:12:28;;;;;;;;;;;;;;;13.76;57.76;100149.19;4987272;28;20383;-81
2023/04/08 08:14:57;;;;;;;;;;;;;;;13.69;56.68;100151.13;4972403;28;19910;-81
2023/04/08 08:17:23;;;;;;;;;;;;;;;13.44;55.71;100161.34;4978644;28;19929;-80
2023/04/08 08:19:49;;;;;;;;;;;;;;;13.49;57.16;100148.00;4991467;28;19918;-80
2023/04/08 08:22:14;;;;;;;;;;;;;;;14.09;55.13;100144.97;4980500;28;20020;-81
2023/04/08 08:24:39;;;;;;;;;;;;;;;14.78;54.26;100141.59;4991838;28;19925;-81
2023/04/08 08:27:05;;;;;;;;;;;;;;;15.25;53.38;100143.94;4986243;28;20000;-81
2023/04/08 08:29:31;;;;;;;;;;;;;;;15.61;51.07;100139.38;4983997;28;20267;-79
2023/04/08 08:31:56;;;;;;;;;;;;;;;15.02;53.20;100142.78;4979781;28;19983;-81
2023/04/08 08:34:22;;;;;;;;;;;;;;;14.65;53.02;100143.69;4982296;28;19913;-81
2023/04/08 08:36:47;;;;;;;;;;;;;;;15.19;53.25;100142.31;4986119;28;19929;-80
2023/04/08 08:39:12;;;;;;;;;;;;;;;15.04;51.30;100136.50;4985786;28;20056;-81
2023/04/08 08:41:38;;;;;;;;;;;;;;;15.11;53.17;100134.56;4985652;28;19920;-81
2023/04/08 08:44:06;;;;;;;;;;;;;;;14.60;51.79;100145.56;4982678;28;19921;-81
2023/04/08 08:46:32;;;;;;;;;;;;;;;15.06;49.56;100133.81;4988453;28;20307;-81
2023/04/08 08:48:57;;;;;;;;;;;;;;;15.57;48.78;100135.94;4992884;28;20017;-82
2023/04/08 08:51:23;;;;;;;;;;;;;;;15.29;49.73;100130.53;4986362;28;20395;-80
2023/04/08 08:53:48;;;;;;;;;;;;;;;15.09;48.54;100123.09;4985754;28;19913;-80
2023/04/08 08:56:13;;;;;;;;;;;;;;;14.41;53.00;100132.75;4986459;28;20009;-81
2023/04/08 08:58:39;;;;;;;;;;;;;;;14.22;50.95;100131.41;4980809;28;19914;-81
2023/04/08 09:01:23;;;;;;;;;;;;;;;14.24;51.76;100129.59;4975065;28;19918;-81
2023/04/08 09:04:05;;;;;;;;;;;;;;;14.29;54.04;100123.28;4979191;28;19914;-81
2023/04/08 09:06:31;;;;;;;;;;;;;;;14.56;52.85;100120.00;4978114;28;19921;-81
2023/04/08 09:08:56;;;;;;;;;;;;;;;14.75;52.04;100120.44;4978242;28;20362;-81
2023/04/08 09:11:22;;;;;;;;;;;;;;;14.89;50.71;100126.28;4976961;28;19924;-81
2023/04/08 09:13:47;;;;;;;;;;;;;;;14.67;50.87;100118.88;4978710;28;19910;-83
2023/04/08 09:16:15;;;;;;;;;;;;;;;14.52;53.89;100121.88;4974449;28;20339;-81
2023/04/08 09:18:44;;;;;;;;;;;;;;;14.37;52.66;100119.59;4979939;28;19918;-80
2023/04/08 09:21:10;;;;;;;;;;;;;;;14.61;52.54;100120.78;4973681;28;20429;-81
2023/04/08 09:23:43;;;;;;;;;;;;;;;14.93;52.21;100122.63;4971918;28;20472;-82
2023/04/08 09:26:15;;;;;;;;;;;;;;;14.68;52.84;100131.22;4973547;28;19922;-82
2023/04/08 09:28:41;;;;;;;;;;;;;;;14.73;52.03;100120.47;4979750;28;20364;-80
2023/04/08 09:31:21;;;;;;;;;;;;;;;14.74;51.52;100116.06;4973868;28;19943;-80
2023/04/08 09:33:47;;;;;;;;;;;;;;;15.03;50.59;100121.47;4978648;28;20354;-80
2023/04/08 09:36:13;;;;;;;;;;;;;;;14.92;52.13;100118.25;4971567;28;19914;-80
2023/04/08 09:38:38;;;;;;;;;;;;;;;14.80;50.98;100107.94;4972448;28;19910;-81
2023/04/08 09:41:06;;;;;;;;;;;;;;;15.07;51.00;100108.97;4972443;28;19914;-79
2023/04/08 09:43:33;;;;;;;;;;;;;;;14.80;50.60;100106.13;4972156;28;20368;-80
2023/04/08 09:46:01;;;;;;;;;;;;;;;14.83;49.57;100108.72;4972002;28;19920;-80
2023/04/08 09:48:30;;;;;;;;;;;;;;;15.21;46.84;100097.97;4972119;28;19918;-80
2023/04/08 09:50:56;;;;;;;;;;;;;;;15.70;47.58;100098.34;4972232;28;20020;-80
2023/04/08 09:53:25;;;;;;;;;;;;;;;15.42;50.81;100100.97;4971545;28;20004;-81
2023/04/08 09:55:52;;;;;;;;;;;;;;;15.27;50.70;100102.25;4971088;28;20213;-81
2023/04/08 09:58:41;;;;;;;;;;;;;;;15.45;53.22;100099.06;4971673;28;19929;-81
2023/04/08 10:01:07;;;;;;;;;;;;;;;16.03;48.81;100103.59;4930429;29;19915;-80
2023/04/08 10:03:48;;;;;;;;;;;;;;;16.50;47.50;100103.00;4930562;29;20028;-81
2023/04/08 10:06:14;;;;;;;;;;;;;;;16.81;45.75;100095.72;4930480;29;20009;-81
2023/04/08 10:08:40;;;;;;;;;;;;;;;16.40;47.09;100097.09;4930619;29;20376;-83
2023/04/08 10:11:06;;;;;;;;;;;;;;;15.98;46.66;100097.56;4929897;29;19919;-84
2023/04/08 10:13:32;;;;;;;;;;;;;;;16.26;46.45;100095.75;4930517;29;20066;-83
2023/04/08 10:16:24;;;;;;;;;;;;;;;16.18;45.78;100088.94;4929182;29;19957;-82
2023/04/08 10:18:54;;;;;;;;;;;;;;;16.19;46.36;100088.91;4910398;29;19914;-83
2023/04/08 10:21:35;;;;;;;;;;;;;;;16.38;44.62;100094.50;4910797;29;19969;-83
2023/04/08 10:24:07;;;;;;;;;;;;;;;16.25;44.60;100087.81;4910993;29;19915;-84
2023/04/08 10:26:37;;;;;;;;;;;;;;;15.50;47.16;100080.34;4911197;29;19919;-85
2023/04/08 10:29:17;;;;;;;;;;;;;;;15.36;47.74;100083.38;4911256;29;20512;-83
2023/04/08 10:31:43;;;;;;;;;;;;;;;15.16;48.24;100078.63;4915646;29;19922;-82
2023/04/08 10:34:16;;;;;;;;;;;;;;;15.40;45.91;100077.94;4930744;29;19919;-82
2023/04/08 10:36:43;;;;;;;;;;;;;;;15.86;46.22;100074.84;4930409;29;19982;-84
2023/04/08 10:39:08;;;;;;;;;;;;;;;15.76;45.43;100076.91;4970190;28;19925;-83
2023/04/08 10:41:33;;;;;;;;;;;;;;;16.10;45.29;100073.22;4975021;28;19914;-83
2023/04/08 10:44:02;;;;;;;;;;;;;;;16.43;43.85;100063.25;4974910;28;20706;-83
2023/04/08 10:46:27;;;;;;;;;;;;;;;16.79;42.89;100062.06;4973580;28;20408;-84
2023/04/08 10:49:00;;;;;;;;;;;;;;;17.08;42.29;100050.41;4974445;28;20021;-83
2023/04/08 10:51:30;;;;;;;;;;;;;;;16.78;45.32;100055.88;4974798;28;19914;-82
2023/04/08 10:54:04;;;;;;;;;;;;;;;16.41;45.95;100059.78;4975195;28;19914;-84
2023/04/08 10:56:29;;;;;;;;;;;;;;;16.20;44.10;100057.81;4974733;28;19925;-82
2023/04/08 10:58:58;;;;;;;;;;;;;;;16.62;44.69;100057.31;4974887;28;19918;-83
2023/04/08 11:01:24;;;;;;;;;;;;;;;16.70;46.26;100057.94;4975110;28;19933;-84
2023/04/08 11:03:50;;;;;;;;;;;;;;;16.39;44.56;100052.75;4975158;28;19917;-84
2023/04/08 11:06:16;;;;;;;;;;;;;;;16.43;46.79;100046.41;4975800;28;19918;-84
2023/04/08 11:08:43;;;;;;;;;;;;;;;16.60;46.73;100048.50;4975221;28;19914;-84
2023/04/08 11:11:09;;;;;;;;;;;;;;;16.40;46.23;100046.53;4975060;28;19996;-84
2023/04/08 11:13:36;;;;;;;;;;;;;;;16.67;46.12;100039.41;4975318;28;19918;-83
2023/04/08 11:16:03;;;;;;;;;;;;;;;16.86;48.59;100034.31;4976332;28;19914;-84
2023/04/08 11:18:30;;;;;;;;;;;;;;;17.32;45.25;100034.44;4994072;28;19913;-85
2023/04/08 11:20:56;;;;;;;;;;;;;;;17.56;44.78;100031.75;4993864;28;19925;-86
2023/04/08 11:23:23;;;;;;;;;;;;;;;17.91;44.39;100026.88;4993917;28;19922;-83
2023/04/08 11:25:49;;;;;;;;;;;;;;;18.12;43.02;100018.00;4994605;28;19913;-84
2023/04/08 11:28:15;;;;;;;;;;;;;;;17.68;43.74;100026.81;4987898;28;19913;-84
2023/04/08 11:30:42;;;;;;;;;;;;;;;17.77;43.96;100017.59;4983421;28;19928;-84
2023/04/08 11:33:07;;;;;;;;;;;;;;;17.60;43.91;100012.06;4980023;28;20008;-84
2023/04/08 11:35:33;;;;;;;;;;;;;;;17.26;44.38;100016.00;4991131;28;20008;-84
2023/04/08 11:37:58;;;;;;;;;;;;;;;17.31;45.98;100006.03;4976090;28;19972;-86
2023/04/08 11:40:23;;;;;;;;;;;;;;;17.05;44.97;100007.00;4985541;28;20021;-84
2023/04/08 11:42:52;;;;;;;;;;;;;;;16.91;44.06;100002.19;4990345;28;20402;-84
2023/04/08 11:45:18;;;;;;;;;;;;;;;16.30;45.29;100008.69;4986781;28;19918;-84
2023/04/08 11:47:46;;;;;;;;;;;;;;;16.44;47.51;100001.09;4976381;28;19937;-83
2023/04/08 11:50:11;;;;;;;;;;;;;;;16.42;47.53;100002.06;4984394;28;19914;-83
2023/04/08 11:52:40;;;;;;;;;;;;;;;16.69;46.23;99994.91;4979086;28;19922;-83
2023/04/08 11:55:06;;;;;;;;;;;;;;;16.74;45.75;99992.09;4981866;28;20009;-83
2023/04/08 11:57:31;;;;;;;;;;;;;;;16.97;45.30;99991.28;4982039;28;20311;-84
2023/04/08 11:59:57;;;;;;;;;;;;;;;17.27;44.99;99983.06;4987339;28;20314;-83
2023/04/08 12:02:22;;;;;;;;;;;;;;;17.35;43.26;99981.00;4985111;28;19928;-84
2023/04/08 12:04:48;;;;;;;;;;;;;;;16.96;45.01;99981.56;4988583;28;19921;-86
2023/04/08 12:07:13;;;;;;;;;;;;;;;16.99;44.88;99968.13;4993376;28;19913;-84
2023/04/08 12:09:38;;;;;;;;;;;;;;;16.77;45.80;99968.88;4993475;28;19914;-85
2023/04/08 12:12:04;;;;;;;;;;;;;;;16.86;45.97;99966.81;4983901;28;19960;-85
2023/04/08 12:14:29;;;;;;;;;;;;;;;17.00;46.76;99959.22;4984613;28;19914;-85
2023/04/08 12:16:55;;;;;;;;;;;;;;;16.56;46.22;99964.31;4976561;28;19918;-85
2023/04/08 12:19:20;;;;;;;;;;;;;;;16.49;46.89;99968.13;4964913;28;19918;-85
2023/04/08 12:21:45;;;;;;;;;;;;;;;16.47;46.23;99954.88;4971895;28;20314;-84
2023/04/08 12:24:11;;;;;;;;;;;;;;;16.45;46.56;99954.94;4972928;28;19914;-84
2023/04/08 12:26:36;;;;;;;;;;;;;;;16.76;44.69;99944.94;4966585;28;20332;-86
2023/04/08 12:29:01;;;;;;;;;;;;;;;16.82;48.04;99950.94;4966521;28;19957;-85
2023/04/08 12:31:27;;;;;;;;;;;;;;;16.36;46.29;99951.69;4963196;28;19925;-85
2023/04/08 12:33:54;;;;;;;;;;;;;;;16.64;45.32;99940.97;4959234;28;19929;-86
2023/04/08 12:36:19;;;;;;;;;;;;;;;16.69;45.85;99936.31;4960817;28;20360;-85
2023/04/08 12:38:44;;;;;;;;;;;;;;;16.61;46.17;99939.28;4958011;28;19918;-85